Time;durP1;ratioP1;P1;durP2;ratioP2;P2;SDS_P1;SDS_P2;PMS_P1;PMS_P2;Temp;Humidity;BMP_temperature;BMP_pressure;BME280_temperature;BME280_humidity;BME280_pressure;Samples;Min_cycle;Max_cycle;Signal;HPM_P1;HPM_P2
2022/09/24 00:02:44;;;;;;;13.10;5.70;;;;;;;;;;5090134;28;20043;-72
2022/09/24 00:05:49;;;;;;;11.95;5.88;;;;;;;;;;5091166;28;20510;-72
2022/09/24 00:08:54;;;;;;;14.35;5.43;;;;;;;;;;5091158;28;20047;-72
2022/09/24 00:11:59;;;;;;;12.65;5.60;;;;;;;;;;5090953;28;20523;-72
2022/09/24 00:15:04;;;;;;;12.13;5.38;;;;;;;;;;5090709;28;20031;-72
2022/09/24 00:18:10;;;;;;;13.40;5.43;;;;;;;;;;5091008;28;20050;-72
2022/09/24 00:21:14;;;;;;;8.50;4.97;;;;;;;;;;5089856;28;20039;-72
2022/09/24 00:27:42;;;;;;;14.27;4.43;;;;;;;;;;5090498;28;20059;-72
2022/09/24 00:30:47;;;;;;;8.88;4.60;;;;;;;;;;5089614;28;20072;-72
2022/09/24 00:33:51;;;;;;;9.35;4.88;;;;;;;;;;5078247;28;20469;-72
2022/09/24 00:36:56;;;;;;;9.48;5.30;;;;;;;;;;5089546;28;20040;-72
2022/09/24 00:40:00;;;;;;;11.57;5.78;;;;;;;;;;5090699;28;20036;-73
2022/09/24 00:43:40;;;;;;;12.65;5.75;;;;;;;;;;5089775;28;20511;-73
2022/09/24 00:46:44;;;;;;;10.38;6.05;;;;;;;;;;5088257;28;20039;-72
2022/09/24 00:49:49;;;;;;;14.57;5.93;;;;;;;;;;5090418;28;20051;-72
2022/09/24 00:52:58;;;;;;;11.13;5.60;;;;;;;;;;5090445;28;20404;-72
2022/09/24 00:56:04;;;;;;;11.18;5.80;;;;;;;;;;5089798;28;20503;-72
2022/09/24 00:59:10;;;;;;;12.75;6.15;;;;;;;;;;5089501;28;20408;-73
2022/09/24 01:02:15;;;;;;;13.40;5.72;;;;;;;;;;5093502;28;20217;-73
2022/09/24 01:05:19;;;;;;;13.13;6.32;;;;;;;;;;5093684;28;20047;-73
2022/09/24 01:08:24;;;;;;;17.75;7.80;;;;;;;;;;5093237;28;20051;-73
2022/09/24 01:11:47;;;;;;;19.83;9.13;;;;;;;;;;5093857;28;20051;-72
2022/09/24 01:14:51;;;;;;;20.05;7.93;;;;;;;;;;5093768;28;20039;-72
2022/09/24 01:18:09;;;;;;;14.13;6.43;;;;;;;;;;5093762;28;20059;-73
2022/09/24 01:21:32;;;;;;;14.30;6.95;;;;;;;;;;5092859;28;20047;-73
2022/09/24 01:24:48;;;;;;;14.27;6.72;;;;;;;;;;5093968;28;20050;-73
2022/09/24 01:28:12;;;;;;;12.50;6.80;;;;;;;;;;5093660;28;20059;-73
2022/09/24 01:31:18;;;;;;;19.27;7.38;;;;;;;;;;5093422;28;20051;-73
2022/09/24 01:34:26;;;;;;;15.38;7.70;;;;;;;;;;5093742;28;20039;-72
2022/09/24 01:37:32;;;;;;;17.75;7.93;;;;;;;;;;5093506;28;20047;-72
2022/09/24 01:40:38;;;;;;;16.52;7.88;;;;;;;;;;5093604;28;20047;-73
2022/09/24 01:43:43;;;;;;;13.80;7.70;;;;;;;;;;5093340;28;20507;-72
2022/09/24 01:46:48;;;;;;;16.38;6.80;;;;;;;;;;5093502;28;20070;-72
2022/09/24 01:49:53;;;;;;;13.90;8.07;;;;;;;;;;5093035;28;20364;-72
2022/09/24 01:53:02;;;;;;;14.95;7.60;;;;;;;;;;5093067;28;20047;-72
2022/09/24 01:56:10;;;;;;;15.68;7.75;;;;;;;;;;5092906;28;20044;-72
2022/09/24 01:59:17;;;;;;;17.27;8.35;;;;;;;;;;5093442;28;20042;-72
2022/09/24 02:02:28;;;;;;;17.90;8.50;;;;;;;;;;5092810;28;20047;-72
2022/09/24 02:05:38;;;;;;;17.52;8.40;;;;;;;;;;5092762;28;20063;-72
2022/09/24 02:08:45;;;;;;;17.45;8.88;;;;;;;;;;5092977;28;20050;-72
2022/09/24 02:11:51;;;;;;;17.42;7.97;;;;;;;;;;5091676;28;20510;-72
2022/09/24 02:15:16;;;;;;;11.70;7.40;;;;;;;;;;5080490;28;20054;-72
2022/09/24 02:18:22;;;;;;;10.93;5.50;;;;;;;;;;5092941;28;20510;-71
2022/09/24 02:21:27;;;;;;;13.13;5.95;;;;;;;;;;5092420;28;20043;-72
2022/09/24 02:24:39;;;;;;;13.23;5.80;;;;;;;;;;5092364;28;20055;-73
2022/09/24 02:27:44;;;;;;;14.52;5.90;;;;;;;;;;5092208;28;20055;-73
2022/09/24 02:30:55;;;;;;;10.23;5.43;;;;;;;;;;5091529;28;20047;-73
2022/09/24 02:34:20;;;;;;;9.95;5.10;;;;;;;;;;5092636;28;20043;-73
2022/09/24 02:37:24;;;;;;;11.18;5.32;;;;;;;;;;5092189;28;20211;-73
2022/09/24 02:40:28;;;;;;;12.55;4.38;;;;;;;;;;5092088;28;20043;-73
2022/09/24 02:43:34;;;;;;;7.97;4.15;;;;;;;;;;5092458;28;20511;-73
2022/09/24 02:46:40;;;;;;;9.48;4.75;;;;;;;;;;5092025;28;20218;-73
2022/09/24 02:49:44;;;;;;;7.85;3.72;;;;;;;;;;5093177;28;20560;-73
2022/09/24 02:52:49;;;;;;;6.28;3.80;;;;;;;;;;5091861;28;20044;-73
2022/09/24 02:55:53;;;;;;;8.77;4.40;;;;;;;;;;5079505;28;20032;-72
2022/09/24 02:58:58;;;;;;;7.47;4.47;;;;;;;;;;5091794;28;20048;-72
2022/09/24 03:02:02;;;;;;;9.07;4.93;;;;;;;;;;5091847;28;20032;-72
2022/09/24 03:05:06;;;;;;;8.45;4.38;;;;;;;;;;5091686;28;20480;-72
2022/09/24 03:08:10;;;;;;;12.18;5.13;;;;;;;;;;5092037;28;20036;-72
2022/09/24 03:11:15;;;;;;;12.55;4.78;;;;;;;;;;5079059;28;20059;-72
2022/09/24 03:14:19;;;;;;;7.22;4.72;;;;;;;;;;5091705;28;20051;-72
2022/09/24 03:17:23;;;;;;;10.55;5.43;;;;;;;;;;5091494;28;20036;-72
2022/09/24 03:20:28;;;;;;;8.65;5.10;;;;;;;;;;5091087;28;20051;-72
2022/09/24 03:23:32;;;;;;;8.82;4.93;;;;;;;;;;5090026;28;20040;-72
2022/09/24 03:26:36;;;;;;;12.57;5.63;;;;;;;;;;5090734;28;20040;-72
2022/09/24 03:33:03;;;;;;;12.57;5.80;;;;;;;;;;5091360;28;20510;-72
2022/09/24 03:36:11;;;;;;;13.13;6.45;;;;;;;;;;5090296;28;20392;-72
2022/09/24 03:39:15;;;;;;;14.63;6.43;;;;;;;;;;5091249;28;20050;-72
2022/09/24 03:42:19;;;;;;;12.00;6.88;;;;;;;;;;5090541;28;20043;-72
2022/09/24 03:45:24;;;;;;;13.07;7.00;;;;;;;;;;5090302;28;20047;-72
2022/09/24 03:48:29;;;;;;;13.82;7.00;;;;;;;;;;5091131;28;20039;-72
2022/09/24 03:51:34;;;;;;;12.95;7.60;;;;;;;;;;5090129;28;20059;-72
2022/09/24 03:54:38;;;;;;;14.35;7.78;;;;;;;;;;5090965;28;20043;-72
2022/09/24 03:57:42;;;;;;;20.55;8.27;;;;;;;;;;5091085;28;20295;-72
2022/09/24 04:00:46;;;;;;;18.10;8.38;;;;;;;;;;5090805;28;20043;-72
2022/09/24 04:03:51;;;;;;;12.90;7.18;;;;;;;;;;5090859;28;20055;-72
2022/09/24 04:06:55;;;;;;;17.23;7.50;;;;;;;;;;5090923;28;20209;-72
2022/09/24 04:09:59;;;;;;;14.80;7.40;;;;;;;;;;5090837;28;20051;-72
2022/09/24 04:13:04;;;;;;;12.07;6.65;;;;;;;;;;5090895;28;20067;-72
2022/09/24 04:16:08;;;;;;;12.30;7.32;;;;;;;;;;5090536;28;20039;-72
2022/09/24 04:19:17;;;;;;;12.38;6.97;;;;;;;;;;5090563;28;20400;-72
2022/09/24 04:22:22;;;;;;;17.92;7.70;;;;;;;;;;5089644;28;20043;-72
2022/09/24 04:25:29;;;;;;;21.38;8.23;;;;;;;;;;5090043;28;20396;-72
2022/09/24 04:28:34;;;;;;;23.90;8.98;;;;;;;;;;5090167;28;20118;-72
2022/09/24 04:31:39;;;;;;;21.08;9.20;;;;;;;;;;5090676;28;20059;-72
2022/09/24 04:34:43;;;;;;;19.10;9.73;;;;;;;;;;5090765;28;20051;-72
2022/09/24 04:37:48;;;;;;;19.70;9.55;;;;;;;;;;5082282;28;20062;-72
2022/09/24 04:40:52;;;;;;;21.10;9.82;;;;;;;;;;5093884;28;20047;-72
2022/09/24 04:43:57;;;;;;;29.15;9.38;;;;;;;;;;5094616;28;20047;-72
2022/09/24 04:47:02;;;;;;;20.23;9.10;;;;;;;;;;5094562;28;20043;-72
2022/09/24 04:50:07;;;;;;;22.05;10.02;;;;;;;;;;5094485;28;20050;-73
2022/09/24 04:53:11;;;;;;;23.75;9.93;;;;;;;;;;5093817;28;20058;-73
2022/09/24 04:56:15;;;;;;;21.45;9.70;;;;;;;;;;5093581;28;20047;-73
2022/09/24 04:59:19;;;;;;;19.88;9.23;;;;;;;;;;5093310;28;20300;-74
2022/09/24 05:02:23;;;;;;;16.20;8.98;;;;;;;;;;5094598;28;20047;-72
2022/09/24 05:05:28;;;;;;;18.90;9.57;;;;;;;;;;5094733;28;20047;-73
2022/09/24 05:08:32;;;;;;;24.02;9.95;;;;;;;;;;5093923;28;20043;-73
2022/09/24 05:11:36;;;;;;;25.33;10.95;;;;;;;;;;5094320;28;20059;-73
2022/09/24 05:14:41;;;;;;;27.02;11.00;;;;;;;;;;5093929;28;20043;-73
2022/09/24 05:17:46;;;;;;;24.15;10.93;;;;;;;;;;5093945;28;20404;-73
2022/09/24 05:20:51;;;;;;;25.42;12.05;;;;;;;;;;5093828;28;20043;-73
2022/09/24 05:23:55;;;;;;;17.73;10.57;;;;;;;;;;5094081;28;20392;-72
2022/09/24 05:27:09;;;;;;;29.20;15.57;;;;;;;;;;5093368;28;20047;-73
2022/09/24 05:30:14;;;;;;;41.90;19.13;;;;;;;;;;5093798;28;20483;-74
2022/09/24 05:33:19;;;;;;;34.88;17.85;;;;;;;;;;5093935;28;20051;-73
2022/09/24 05:36:25;;;;;;;40.15;17.83;;;;;;;;;;5093453;28;20043;-70
2022/09/24 05:39:30;;;;;;;34.05;17.35;;;;;;;;;;5092871;28;20046;-69
2022/09/24 05:42:34;;;;;;;35.95;17.75;;;;;;;;;;5092889;28;20042;-70
2022/09/24 05:45:40;;;;;;;46.17;19.85;;;;;;;;;;5093488;28;20066;-71
2022/09/24 05:48:45;;;;;;;35.03;23.20;;;;;;;;;;5093443;28;20051;-71
2022/09/24 05:51:49;;;;;;;41.92;24.35;;;;;;;;;;5093342;28;20047;-70
2022/09/24 05:54:54;;;;;;;42.00;27.02;;;;;;;;;;5092794;28;20515;-70
2022/09/24 05:58:10;;;;;;;40.85;26.05;;;;;;;;;;5092993;28;20050;-69
2022/09/24 06:01:14;;;;;;;49.63;29.02;;;;;;;;;;5093304;28;20396;-70
2022/09/24 06:04:19;;;;;;;56.47;36.05;;;;;;;;;;5092225;28;20039;-69
2022/09/24 06:07:23;;;;;;;56.20;33.33;;;;;;;;;;5092999;28;20043;-69
2022/09/24 06:10:27;;;;;;;62.95;37.67;;;;;;;;;;5092959;28;20040;-70
2022/09/24 06:13:35;;;;;;;61.45;35.78;;;;;;;;;;5092831;28;20043;-70
2022/09/24 06:16:40;;;;;;;48.83;31.17;;;;;;;;;;5092972;28;20039;-69
2022/09/24 06:19:46;;;;;;;39.30;21.88;;;;;;;;;;5092784;28;20318;-69
2022/09/24 06:22:50;;;;;;;35.30;19.98;;;;;;;;;;5092596;28;20039;-68
2022/09/24 06:25:54;;;;;;;28.80;16.67;;;;;;;;;;5092611;28;20039;-69
2022/09/24 06:28:59;;;;;;;36.15;17.42;;;;;;;;;;5092426;28;20048;-72
2022/09/24 06:32:03;;;;;;;33.95;16.63;;;;;;;;;;5090956;28;20055;-68
2022/09/24 06:35:08;;;;;;;28.90;16.83;;;;;;;;;;5092152;28;20041;-70
2022/09/24 06:38:14;;;;;;;28.73;14.30;;;;;;;;;;5092421;28;20043;-74
2022/09/24 06:41:18;;;;;;;34.10;15.10;;;;;;;;;;5092810;28;20051;-72
2022/09/24 06:44:23;;;;;;;36.58;15.20;;;;;;;;;;5092550;28;20047;-72
2022/09/24 06:47:28;;;;;;;31.98;15.57;;;;;;;;;;5091662;28;20039;-72
2022/09/24 06:50:34;;;;;;;29.05;13.85;;;;;;;;;;5092212;28;20051;-72
2022/09/24 06:53:38;;;;;;;24.15;12.70;;;;;;;;;;5092349;28;20051;-75
2022/09/24 06:56:43;;;;;;;23.92;14.05;;;;;;;;;;5092058;28;20043;-72
2022/09/24 06:59:47;;;;;;;29.20;14.63;;;;;;;;;;5091473;28;20043;-75
2022/09/24 07:02:51;;;;;;;28.90;13.65;;;;;;;;;;5091198;28;20051;-73
2022/09/24 07:05:56;;;;;;;25.75;12.50;;;;;;;;;;5091977;28;20051;-72
2022/09/24 07:09:00;;;;;;;31.35;14.30;;;;;;;;;;5092097;28;20047;-73
2022/09/24 07:12:07;;;;;;;34.50;12.63;;;;;;;;;;5091883;28;20051;-75
2022/09/24 07:15:11;;;;;;;34.25;14.52;;;;;;;;;;5091880;28;20680;-73
2022/09/24 07:18:16;;;;;;;46.70;14.30;;;;;;;;;;5092026;28;20055;-75
2022/09/24 07:21:21;;;;;;;27.80;14.63;;;;;;;;;;5091757;28;20047;-77
2022/09/24 07:24:25;;;;;;;28.45;13.18;;;;;;;;;;5091903;28;20046;-73
2022/09/24 07:27:30;;;;;;;80.68;16.38;;;;;;;;;;5091468;28;20046;-72
2022/09/24 07:30:34;;;;;;;32.25;13.27;;;;;;;;;;5091276;28;20051;-74
2022/09/24 07:33:38;;;;;;;33.90;13.05;;;;;;;;;;5091247;28;20051;-69
2022/09/24 07:36:43;;;;;;;21.35;11.82;;;;;;;;;;5091435;28;20039;-80
2022/09/24 07:39:47;;;;;;;25.33;10.98;;;;;;;;;;5090362;28;20046;-75
2022/09/24 07:42:51;;;;;;;21.90;9.43;;;;;;;;;;5091520;28;20066;-71
2022/09/24 07:45:57;;;;;;;18.33;8.68;;;;;;;;;;5091255;28;20043;-72
2022/09/24 07:49:01;;;;;;;18.88;8.70;;;;;;;;;;5090402;28;20047;-73
2022/09/24 07:52:05;;;;;;;19.52;7.97;;;;;;;;;;5091145;28;20400;-72
2022/09/24 07:55:09;;;;;;;19.33;6.78;;;;;;;;;;5091036;28;20047;-73
2022/09/24 07:58:14;;;;;;;16.83;7.25;;;;;;;;;;5091134;28;20058;-72
2022/09/24 08:01:19;;;;;;;13.85;6.53;;;;;;;;;;5078520;28;20043;-71
2022/09/24 08:04:23;;;;;;;9.75;4.90;;;;;;;;;;5090701;28;20047;-73
2022/09/24 08:07:28;;;;;;;12.85;5.28;;;;;;;;;;5089974;28;20036;-73
2022/09/24 08:10:32;;;;;;;15.20;4.85;;;;;;;;;;5090758;28;20212;-72
2022/09/24 08:13:37;;;;;;;11.65;4.35;;;;;;;;;;5090938;28;20063;-74
2022/09/24 08:16:41;;;;;;;15.13;4.63;;;;;;;;;;5090894;28;20039;-77
2022/09/24 08:19:45;;;;;;;9.63;3.80;;;;;;;;;;5090416;28;20066;-75
2022/09/24 08:22:50;;;;;;;8.45;3.33;;;;;;;;;;5090633;28;20389;-76
2022/09/24 08:25:54;;;;;;;5.90;3.10;;;;;;;;;;5090645;28;20036;-76
2022/09/24 08:28:59;;;;;;;8.85;3.88;;;;;;;;;;5090636;28;20032;-72
2022/09/24 08:32:03;;;;;;;11.90;3.28;;;;;;;;;;5089838;28;20048;-74
2022/09/24 08:35:08;;;;;;;6.30;2.90;;;;;;;;;;5090879;28;20039;-72
2022/09/24 08:38:12;;;;;;;8.27;3.78;;;;;;;;;;5078136;28;20040;-74
2022/09/24 08:41:36;;;;;;;6.57;3.60;;;;;;;;;;5090780;28;20040;-73
2022/09/24 08:48:08;;;;;;;6.30;3.60;;;;;;;;;;5089878;28;20043;-72
2022/09/24 08:51:16;;;;;;;6.10;3.72;;;;;;;;;;5090663;28;20044;-73
2022/09/24 08:54:23;;;;;;;8.40;3.80;;;;;;;;;;5090735;28;20040;-74
2022/09/24 08:57:27;;;;;;;11.05;3.85;;;;;;;;;;5090728;28;20036;-73
2022/09/24 09:00:36;;;;;;;8.43;4.00;;;;;;;;;;5090324;28;20043;-75
2022/09/24 09:03:50;;;;;;;9.80;4.00;;;;;;;;;;5066485;28;20040;-76
2022/09/24 09:07:04;;;;;;;12.23;3.72;;;;;;;;;;5090377;28;20040;-76
2022/09/24 09:10:14;;;;;;;7.93;3.30;;;;;;;;;;5090240;28;20043;-78
2022/09/24 09:13:21;;;;;;;11.00;3.97;;;;;;;;;;5090270;28;20048;-72
2022/09/24 09:16:27;;;;;;;8.75;4.03;;;;;;;;;;5090547;28;20035;-73
2022/09/24 09:19:33;;;;;;;8.98;3.60;;;;;;;;;;5090326;28;20040;-71
2022/09/24 09:22:41;;;;;;;13.27;5.15;;;;;;;;;;5092857;28;20028;-73
2022/09/24 09:25:51;;;;;;;10.88;4.75;;;;;;;;;;5093255;28;20051;-71
2022/09/24 09:28:59;;;;;;;8.90;4.13;;;;;;;;;;5093808;28;20242;-75
2022/09/24 09:32:19;;;;;;;9.23;4.22;;;;;;;;;;5093682;28;20048;-71
2022/09/24 09:35:29;;;;;;;6.47;4.10;;;;;;;;;;5093134;28;20040;-71
2022/09/24 09:38:39;;;;;;;9.00;4.35;;;;;;;;;;5093681;28;20476;-72
2022/09/24 09:41:46;;;;;;;9.68;3.95;;;;;;;;;;5093694;28;20032;-73
2022/09/24 09:44:51;;;;;;;6.60;3.55;;;;;;;;;;5093528;28;20487;-71
2022/09/24 09:47:56;;;;;;;4.40;2.70;;;;;;;;;;5093662;28;20035;-82
2022/09/24 09:51:05;;;;;;;9.93;3.03;;;;;;;;;;5093410;28;20035;-72
2022/09/24 09:54:10;;;;;;;5.65;3.05;;;;;;;;;;5093031;28;20044;-74
2022/09/24 09:57:24;;;;;;;6.07;2.30;;;;;;;;;;5092020;28;20036;-80
2022/09/24 10:00:33;;;;;;;4.85;2.08;;;;;;;;;;5092975;28;20357;-78
2022/09/24 10:03:45;;;;;;;5.18;2.00;;;;;;;;;;5093003;28;20098;-76
2022/09/24 10:06:49;;;;;;;8.40;2.30;;;;;;;;;;5093311;28;20547;-76
2022/09/24 10:10:16;;;;;;;4.63;1.92;;;;;;;;;;5092999;28;20040;-75
2022/09/24 10:13:20;;;;;;;3.53;1.88;;;;;;;;;;5091579;28;20044;-75
2022/09/24 10:16:24;;;;;;;4.43;1.60;;;;;;;;;;5092039;28;20032;-74
2022/09/24 10:19:29;;;;;;;3.50;1.30;;;;;;;;;;5091849;28;20476;-74
2022/09/24 10:22:34;;;;;;;3.38;1.70;;;;;;;;;;5092506;28;20032;-74
2022/09/24 10:25:39;;;;;;;6.18;1.60;;;;;;;;;;5091976;28;20040;-74
2022/09/24 10:32:18;;;;;;;5.13;1.50;;;;;;;;;;5092473;28;20044;-76
2022/09/24 10:35:34;;;;;;;2.83;1.80;;;;;;;;;;5092069;28;20032;-74
2022/09/24 10:38:39;;;;;;;1.63;1.25;;;;;;;;;;5091980;28;20036;-75
2022/09/24 10:41:55;;;;;;;4.93;2.00;;;;;;;;;;5092390;28;20040;-74
2022/09/24 10:45:00;;;;;;;8.93;1.98;;;;;;;;;;5092261;28;20040;-74
2022/09/24 10:48:08;;;;;;;4.40;1.80;;;;;;;;;;5091968;28;20373;-75
2022/09/24 10:51:30;;;;;;;4.47;1.80;;;;;;;;;;5091669;28;20040;-74
2022/09/24 10:54:34;;;;;;;8.50;2.28;;;;;;;;;;5092545;28;20044;-73
2022/09/24 10:58:05;;;;;;;4.78;2.20;;;;;;;;;;5091507;28;20040;-73
2022/09/24 11:01:12;;;;;;;7.27;2.47;;;;;;;;;;5091984;28;20373;-75
2022/09/24 11:04:22;;;;;;;4.68;1.92;;;;;;;;;;5091999;28;20040;-72
2022/09/24 11:07:51;;;;;;;6.13;1.80;;;;;;;;;;5091945;28;20047;-75
2022/09/24 11:10:59;;;;;;;4.70;1.83;;;;;;;;;;5091295;28;20035;-75
2022/09/24 11:14:13;;;;;;;3.30;1.60;;;;;;;;;;5091758;28;20032;-73
2022/09/24 11:17:35;;;;;;;4.07;1.65;;;;;;;;;;5091191;28;20369;-74
2022/09/24 11:20:48;;;;;;;5.60;1.65;;;;;;;;;;5092087;28;20345;-75
2022/09/24 11:23:58;;;;;;;4.25;1.77;;;;;;;;;;5090932;28;20039;-73
2022/09/24 11:27:03;;;;;;;4.43;1.92;;;;;;;;;;5091528;28;20043;-74
2022/09/24 11:30:17;;;;;;;3.22;1.73;;;;;;;;;;5091716;28;20377;-75
2022/09/24 11:33:25;;;;;;;2.97;1.67;;;;;;;;;;5091590;28;20043;-74
2022/09/24 11:36:47;;;;;;;5.50;2.13;;;;;;;;;;5090528;28;20035;-74
2022/09/24 11:39:54;;;;;;;3.58;1.80;;;;;;;;;;5091231;28;20040;-73
2022/09/24 11:43:14;;;;;;;3.90;1.90;;;;;;;;;;5091384;28;20032;-73
2022/09/24 11:46:27;;;;;;;4.38;2.05;;;;;;;;;;5090987;28;20040;-73
2022/09/24 11:49:40;;;;;;;5.43;1.80;;;;;;;;;;5091558;28;20036;-75
2022/09/24 11:52:47;;;;;;;3.17;1.45;;;;;;;;;;5091235;28;20047;-72
2022/09/24 11:55:58;;;;;;;3.65;1.92;;;;;;;;;;5091349;28;20036;-74
2022/09/24 11:59:10;;;;;;;6.33;1.80;;;;;;;;;;5090929;28;20036;-73
2022/09/24 12:02:16;;;;;;;7.13;1.98;;;;;;;;;;5091363;28;20032;-74
2022/09/24 12:05:34;;;;;;;7.13;1.73;;;;;;;;;;5091458;28;20043;-73
2022/09/24 12:08:48;;;;;;;6.75;1.90;;;;;;;;;;5090298;28;20040;-74
2022/09/24 12:12:01;;;;;;;3.60;1.77;;;;;;;;;;5091265;28;20040;-74
2022/09/24 12:15:18;;;;;;;11.00;1.58;;;;;;;;;;5091122;28;20040;-74
2022/09/24 12:18:22;;;;;;;3.63;1.60;;;;;;;;;;5091256;28;20047;-73
2022/09/24 12:21:27;;;;;;;6.95;1.77;;;;;;;;;;5090318;28;20036;-76
2022/09/24 12:24:37;;;;;;;5.95;2.78;;;;;;;;;;5090090;28;20036;-76
2022/09/24 12:27:41;;;;;;;7.13;2.00;;;;;;;;;;5090845;28;20048;-76
2022/09/24 12:34:38;;;;;;;7.82;2.00;;;;;;;;;;5089891;28;20044;-73
2022/09/24 12:37:43;;;;;;;6.70;1.98;;;;;;;;;;5090388;28;20040;-74
2022/09/24 12:40:53;;;;;;;4.00;2.10;;;;;;;;;;5091008;28;20044;-73
2022/09/24 12:43:57;;;;;;;3.75;1.50;;;;;;;;;;5090876;28;20044;-72
2022/09/24 12:47:02;;;;;;;4.57;1.50;;;;;;;;;;5090677;28;20040;-71
2022/09/24 12:50:18;;;;;;;3.63;1.60;;;;;;;;;;5090679;28;20361;-74
2022/09/24 12:53:26;;;;;;;3.22;1.55;;;;;;;;;;5090429;28;20512;-73
2022/09/24 12:56:31;;;;;;;2.60;1.52;;;;;;;;;;5091045;28;20032;-72
2022/09/24 12:59:45;;;;;;;3.25;1.65;;;;;;;;;;5094594;28;20032;-74
2022/09/24 13:02:51;;;;;;;4.95;1.60;;;;;;;;;;5094667;28;20036;-74
2022/09/24 13:05:58;;;;;;;2.33;1.60;;;;;;;;;;5094844;28;20754;-73
2022/09/24 13:09:23;;;;;;;6.72;2.17;;;;;;;;;;5094544;28;20044;-73
2022/09/24 13:12:32;;;;;;;8.57;1.63;;;;;;;;;;5092895;28;20048;-73
2022/09/24 13:15:38;;;;;;;5.00;1.73;;;;;;;;;;5093539;28;20377;-73
2022/09/24 13:18:42;;;;;;;4.50;2.15;;;;;;;;;;5094376;28;20035;-73
2022/09/24 13:21:53;;;;;;;3.53;1.48;;;;;;;;;;5092738;28;20047;-72
2022/09/24 13:25:06;;;;;;;2.80;1.55;;;;;;;;;;5092233;28;20036;-73
2022/09/24 13:28:39;;;;;;;9.98;3.97;;;;;;;;;;5092615;28;20044;-72
2022/09/24 13:31:48;;;;;;;7.88;1.92;;;;;;;;;;5092416;28;20036;-73
2022/09/24 13:34:52;;;;;;;7.43;2.65;;;;;;;;;;5093890;28;20044;-73
2022/09/24 13:38:02;;;;;;;4.72;1.70;;;;;;;;;;5094149;28;20040;-73
2022/09/24 13:41:40;;;;;;;3.90;1.73;;;;;;;;;;5093673;28;20085;-72
2022/09/24 13:44:50;;;;;;;7.32;1.77;;;;;;;;;;5093128;28;20040;-72
2022/09/24 13:47:56;;;;;;;5.53;1.60;;;;;;;;;;5092555;28;20040;-73
2022/09/24 13:51:02;;;;;;;4.85;1.90;;;;;;;;;;5093343;28;20044;-71
2022/09/24 13:54:12;;;;;;;2.90;1.70;;;;;;;;;;5093723;28;20059;-73
2022/09/24 13:57:25;;;;;;;4.80;1.47;;;;;;;;;;5081352;28;20042;-74
2022/09/24 14:00:31;;;;;;;4.60;2.00;;;;;;;;;;5093447;28;20036;-74
2022/09/24 14:03:35;;;;;;;6.47;1.50;;;;;;;;;;5093614;28;20040;-74
2022/09/24 14:06:42;;;;;;;10.68;2.22;;;;;;;;;;5092069;28;20044;-73
2022/09/24 14:09:47;;;;;;;10.00;1.88;;;;;;;;;;5093102;28;20035;-73
2022/09/24 14:13:00;;;;;;;4.75;2.10;;;;;;;;;;5093124;28;20051;-73
2022/09/24 14:16:09;;;;;;;4.38;2.35;;;;;;;;;;5093480;28;20040;-73
2022/09/24 14:19:14;;;;;;;4.15;1.60;;;;;;;;;;5092776;28;20039;-71
2022/09/24 14:22:23;;;;;;;9.93;2.20;;;;;;;;;;5091968;28;20032;-73
2022/09/24 14:25:29;;;;;;;7.15;1.90;;;;;;;;;;5092809;28;20373;-73
2022/09/24 14:28:34;;;;;;;4.75;1.80;;;;;;;;;;5092330;28;20048;-72
2022/09/24 14:31:43;;;;;;;3.47;1.60;;;;;;;;;;5092077;28;20043;-72
2022/09/24 14:34:50;;;;;;;5.20;1.80;;;;;;;;;;5092358;28;20052;-74
2022/09/24 14:37:58;;;;;;;5.55;1.65;;;;;;;;;;5091390;28;20032;-73
2022/09/24 14:41:07;;;;;;;4.07;1.80;;;;;;;;;;5079708;28;20040;-73
2022/09/24 14:44:19;;;;;;;3.92;1.70;;;;;;;;;;5091832;28;20032;-74
2022/09/24 14:47:28;;;;;;;4.68;1.80;;;;;;;;;;5093342;28;20032;-74
2022/09/24 14:50:41;;;;;;;4.22;1.83;;;;;;;;;;5091687;28;20028;-73
2022/09/24 14:53:56;;;;;;;5.95;1.70;;;;;;;;;;5091488;28;20123;-73
2022/09/24 14:57:19;;;;;;;13.32;1.98;;;;;;;;;;5092312;28;20464;-72
2022/09/24 15:00:25;;;;;;;6.85;2.00;;;;;;;;;;5092040;28;20051;-73
2022/09/24 15:03:37;;;;;;;2.80;2.00;;;;;;;;;;5092226;28;20044;-73
2022/09/24 15:06:44;;;;;;;3.00;1.30;;;;;;;;;;5092003;28;20480;-73
2022/09/24 15:09:50;;;;;;;5.25;1.70;;;;;;;;;;5091270;28;20032;-72
2022/09/24 15:12:54;;;;;;;5.03;1.40;;;;;;;;;;5090394;28;20047;-73
2022/09/24 15:16:06;;;;;;;4.20;2.17;;;;;;;;;;5090479;28;20080;-73
2022/09/24 15:19:10;;;;;;;2.60;1.80;;;;;;;;;;5090667;28;20480;-73
2022/09/24 15:22:14;;;;;;;5.63;1.77;;;;;;;;;;5090845;28;20099;-73
2022/09/24 15:25:18;;;;;;;2.58;1.52;;;;;;;;;;5091073;28;20044;-74
2022/09/24 15:28:27;;;;;;;5.38;2.08;;;;;;;;;;5090613;28;20036;-73
2022/09/24 15:31:32;;;;;;;7.20;2.00;;;;;;;;;;5090989;28;20040;-74
2022/09/24 15:34:36;;;;;;;7.18;1.95;;;;;;;;;;5090747;28;20048;-73
2022/09/24 15:37:40;;;;;;;4.95;2.13;;;;;;;;;;5090619;28;20035;-72
2022/09/24 15:40:45;;;;;;;3.80;1.73;;;;;;;;;;5090968;28;20044;-72
2022/09/24 15:43:50;;;;;;;3.72;1.85;;;;;;;;;;5091128;28;20436;-73
2022/09/24 15:46:54;;;;;;;4.30;2.05;;;;;;;;;;5091078;28;20499;-73
2022/09/24 15:49:58;;;;;;;4.80;2.30;;;;;;;;;;5090402;28;20035;-72
2022/09/24 15:53:03;;;;;;;6.68;1.83;;;;;;;;;;5090561;28;20159;-72
2022/09/24 15:56:07;;;;;;;5.90;2.25;;;;;;;;;;5090422;28;20032;-73
2022/09/24 15:59:15;;;;;;;7.30;1.98;;;;;;;;;;5090849;28;20048;-74
2022/09/24 16:02:24;;;;;;;4.03;2.05;;;;;;;;;;5089996;28;20044;-74
2022/09/24 16:05:28;;;;;;;7.10;2.70;;;;;;;;;;5090610;28;20040;-74
2022/09/24 16:08:33;;;;;;;7.80;2.53;;;;;;;;;;5089758;28;20028;-73
2022/09/24 16:11:37;;;;;;;8.70;1.95;;;;;;;;;;5090819;28;20032;-74
2022/09/24 16:14:42;;;;;;;6.40;1.98;;;;;;;;;;5090711;28;20040;-73
2022/09/24 16:17:48;;;;;;;9.35;2.45;;;;;;;;;;5090600;28;20032;-73
2022/09/24 16:20:53;;;;;;;4.47;2.15;;;;;;;;;;5090327;28;20027;-74
2022/09/24 16:23:57;;;;;;;5.20;1.90;;;;;;;;;;5090667;28;20032;-73
2022/09/24 16:27:01;;;;;;;4.65;1.90;;;;;;;;;;5090165;28;20048;-74
2022/09/24 16:30:06;;;;;;;5.75;1.67;;;;;;;;;;5090342;28;20393;-74
2022/09/24 16:33:11;;;;;;;11.88;1.77;;;;;;;;;;5094071;28;20393;-72
2022/09/24 16:36:15;;;;;;;7.40;2.40;;;;;;;;;;5093329;28;20047;-72
2022/09/24 16:39:19;;;;;;;5.95;1.77;;;;;;;;;;5093985;28;20044;-73
2022/09/24 16:42:25;;;;;;;8.43;2.03;;;;;;;;;;5094025;28;20036;-73
2022/09/24 16:45:30;;;;;;;5.07;2.22;;;;;;;;;;5094270;28;20052;-73
2022/09/24 16:48:34;;;;;;;6.07;2.05;;;;;;;;;;5093476;28;20036;-73
2022/09/24 16:51:39;;;;;;;6.13;2.63;;;;;;;;;;5093985;28;20475;-75
2022/09/24 16:54:43;;;;;;;4.82;1.70;;;;;;;;;;5093943;28;20546;-73
2022/09/24 16:57:47;;;;;;;4.82;2.00;;;;;;;;;;5093575;28;20492;-73
2022/09/24 17:00:52;;;;;;;5.70;2.17;;;;;;;;;;5092719;28;20040;-72
2022/09/24 17:03:57;;;;;;;9.60;4.57;;;;;;;;;;5093461;28;20372;-73
2022/09/24 17:07:02;;;;;;;7.05;2.47;;;;;;;;;;5093684;28;20040;-74
2022/09/24 17:10:12;;;;;;;7.82;2.42;;;;;;;;;;5094015;28;20377;-73
2022/09/24 17:13:17;;;;;;;8.80;2.85;;;;;;;;;;5093354;28;20044;-73
2022/09/24 17:16:22;;;;;;;6.97;3.03;;;;;;;;;;5092894;28;20036;-74
2022/09/24 17:19:26;;;;;;;7.28;3.70;;;;;;;;;;5093614;28;20044;-74
2022/09/24 17:22:30;;;;;;;6.75;3.38;;;;;;;;;;5092644;28;20039;-72
2022/09/24 17:25:34;;;;;;;8.38;3.13;;;;;;;;;;5093656;28;20496;-73
2022/09/24 17:28:40;;;;;;;4.63;2.65;;;;;;;;;;5092776;28;20048;-73
2022/09/24 17:31:44;;;;;;;6.53;2.72;;;;;;;;;;5093069;28;20036;-73
2022/09/24 17:34:48;;;;;;;4.60;2.85;;;;;;;;;;5092512;28;20044;-73
2022/09/24 17:37:52;;;;;;;10.10;2.75;;;;;;;;;;5092619;28;20036;-73
2022/09/24 17:40:58;;;;;;;10.35;3.00;;;;;;;;;;5093340;28;20047;-74
2022/09/24 17:44:02;;;;;;;5.63;2.88;;;;;;;;;;5092969;28;20047;-72
2022/09/24 17:47:07;;;;;;;8.23;3.13;;;;;;;;;;5093051;28;20036;-73
2022/09/24 17:50:11;;;;;;;11.73;4.22;;;;;;;;;;5093023;28;20028;-73
2022/09/24 17:53:15;;;;;;;16.02;5.55;;;;;;;;;;5092924;28;20530;-73
2022/09/24 17:56:21;;;;;;;23.20;5.00;;;;;;;;;;5092594;28;20043;-73
2022/09/24 17:59:25;;;;;;;18.23;5.00;;;;;;;;;;5092406;28;20046;-74
2022/09/24 18:02:29;;;;;;;20.48;6.60;;;;;;;;;;5091960;28;20047;-73
2022/09/24 18:05:34;;;;;;;24.30;6.00;;;;;;;;;;5092685;28;20063;-73
2022/09/24 18:08:39;;;;;;;20.63;5.80;;;;;;;;;;5091669;28;20047;-73
2022/09/24 18:11:45;;;;;;;32.80;11.00;;;;;;;;;;5091864;28;20051;-72
2022/09/24 18:14:49;;;;;;;11.35;5.80;;;;;;;;;;5091814;28;20519;-73
2022/09/24 18:17:53;;;;;;;21.13;8.10;;;;;;;;;;5091717;28;20043;-72
2022/09/24 18:21:08;;;;;;;22.48;5.65;;;;;;;;;;5092685;28;20051;-73
2022/09/24 18:24:13;;;;;;;18.58;6.47;;;;;;;;;;5092505;28;20051;-73
2022/09/24 18:27:17;;;;;;;23.67;6.68;;;;;;;;;;5092006;28;20201;-73
2022/09/24 18:30:23;;;;;;;33.13;11.45;;;;;;;;;;5092506;28;20043;-72
2022/09/24 18:33:27;;;;;;;19.73;7.65;;;;;;;;;;5092357;28;20130;-72
2022/09/24 18:36:32;;;;;;;25.00;7.50;;;;;;;;;;5092226;28;20047;-73
2022/09/24 18:39:36;;;;;;;31.63;7.57;;;;;;;;;;5092084;28;20047;-73
2022/09/24 18:42:41;;;;;;;20.80;6.70;;;;;;;;;;5090731;28;20039;-73
2022/09/24 18:45:45;;;;;;;20.40;9.02;;;;;;;;;;5092110;28;20054;-72
2022/09/24 18:48:51;;;;;;;22.92;8.98;;;;;;;;;;5091886;28;20364;-73
2022/09/24 18:51:55;;;;;;;26.52;7.72;;;;;;;;;;5091185;28;20043;-71